sensor_id;sensor_type;location;lat;lon;timestamp;P1;durP1;ratioP1;P2;durP2;ratioP2
6432;SDS011;3249;42.690;23.260;2022-07-29T00:00:00;13.37;;;12.27;;
6432;SDS011;3249;42.690;23.260;2022-07-29T00:02:26;13.47;;;12.00;;
6432;SDS011;3249;42.690;23.260;2022-07-29T00:04:52;13.13;;;12.03;;
6432;SDS011;3249;42.690;23.260;2022-07-29T00:07:18;12.90;;;11.80;;
6432;SDS011;3249;42.690;23.260;2022-07-29T00:09:43;13.40;;;12.13;;
6432;SDS011;3249;42.690;23.260;2022-07-29T00:12:09;13.60;;;12.20;;
6432;SDS011;3249;42.690;23.260;2022-07-29T00:14:34;13.07;;;11.87;;
6432;SDS011;3249;42.690;23.260;2022-07-29T00:17:00;14.37;;;13.13;;
6432;SDS011;3249;42.690;23.260;2022-07-29T00:19:25;13.70;;;12.43;;
6432;SDS011;3249;42.690;23.260;2022-07-29T00:21:51;14.00;;;12.63;;
6432;SDS011;3249;42.690;23.260;2022-07-29T00:24:16;14.30;;;12.90;;
6432;SDS011;3249;42.690;23.260;2022-07-29T00:26:42;15.70;;;13.60;;
6432;SDS011;3249;42.690;23.260;2022-07-29T00:29:07;14.97;;;13.53;;
6432;SDS011;3249;42.690;23.260;2022-07-29T00:31:33;14.83;;;13.40;;
6432;SDS011;3249;42.690;23.260;2022-07-29T00:33:58;14.33;;;13.03;;
6432;SDS011;3249;42.690;23.260;2022-07-29T00:36:26;14.60;;;13.17;;
6432;SDS011;3249;42.690;23.260;2022-07-29T00:38:52;14.00;;;12.70;;
6432;SDS011;3249;42.690;23.260;2022-07-29T00:41:17;13.43;;;12.17;;
6432;SDS011;3249;42.690;23.260;2022-07-29T00:43:43;15.00;;;13.03;;
6432;SDS011;3249;42.690;23.260;2022-07-29T00:46:09;14.87;;;12.37;;
6432;SDS011;3249;42.690;23.260;2022-07-29T00:48:35;14.03;;;12.77;;
6432;SDS011;3249;42.690;23.260;2022-07-29T00:51:02;17.13;;;11.53;;
6432;SDS011;3249;42.690;23.260;2022-07-29T00:53:29;12.93;;;11.80;;
6432;SDS011;3249;42.690;23.260;2022-07-29T00:55:55;15.83;;;12.97;;
6432;SDS011;3249;42.690;23.260;2022-07-29T00:58:21;13.27;;;12.03;;
6432;SDS011;3249;42.690;23.260;2022-07-29T01:00:48;13.30;;;12.10;;
6432;SDS011;3249;42.690;23.260;2022-07-29T01:03:13;15.03;;;12.93;;
6432;SDS011;3249;42.690;23.260;2022-07-29T01:05:39;15.10;;;13.67;;
6432;SDS011;3249;42.690;23.260;2022-07-29T01:08:06;14.10;;;12.90;;
6432;SDS011;3249;42.690;23.260;2022-07-29T01:10:32;14.33;;;12.93;;
6432;SDS011;3249;42.690;23.260;2022-07-29T01:12:58;14.37;;;12.97;;
6432;SDS011;3249;42.690;23.260;2022-07-29T01:15:26;14.77;;;13.33;;
6432;SDS011;3249;42.690;23.260;2022-07-29T01:17:54;14.27;;;12.90;;
6432;SDS011;3249;42.690;23.260;2022-07-29T01:29:22;16.17;;;14.60;;
6432;SDS011;3249;42.690;23.260;2022-07-29T01:32:01;15.13;;;13.13;;
6432;SDS011;3249;42.690;23.260;2022-07-29T01:34:41;15.90;;;13.13;;
6432;SDS011;3249;42.690;23.260;2022-07-29T01:39:43;14.67;;;13.13;;
6432;SDS011;3249;42.690;23.260;2022-07-29T01:42:20;16.87;;;15.13;;
6432;SDS011;3249;42.690;23.260;2022-07-29T01:44:55;15.33;;;13.73;;
6432;SDS011;3249;42.690;23.260;2022-07-29T01:50:26;16.67;;;14.63;;
6432;SDS011;3249;42.690;23.260;2022-07-29T01:53:08;15.10;;;13.43;;
6432;SDS011;3249;42.690;23.260;2022-07-29T01:55:36;15.30;;;13.83;;
6432;SDS011;3249;42.690;23.260;2022-07-29T01:58:05;15.80;;;14.10;;
6432;SDS011;3249;42.690;23.260;2022-07-29T02:00:33;19.00;;;14.57;;
6432;SDS011;3249;42.690;23.260;2022-07-29T02:03:02;17.33;;;13.80;;
6432;SDS011;3249;42.690;23.260;2022-07-29T02:05:32;16.67;;;15.00;;
6432;SDS011;3249;42.690;23.260;2022-07-29T02:08:00;16.37;;;14.77;;
6432;SDS011;3249;42.690;23.260;2022-07-29T02:10:28;21.03;;;15.10;;
6432;SDS011;3249;42.690;23.260;2022-07-29T02:12:56;17.93;;;16.23;;
6432;SDS011;3249;42.690;23.260;2022-07-29T02:15:23;17.73;;;15.97;;
6432;SDS011;3249;42.690;23.260;2022-07-29T02:17:56;17.00;;;15.20;;
6432;SDS011;3249;42.690;23.260;2022-07-29T02:20:26;15.73;;;14.00;;
6432;SDS011;3249;42.690;23.260;2022-07-29T02:22:52;21.70;;;16.03;;
6432;SDS011;3249;42.690;23.260;2022-07-29T02:25:20;15.50;;;14.10;;
6432;SDS011;3249;42.690;23.260;2022-07-29T02:27:47;16.77;;;14.63;;
6432;SDS011;3249;42.690;23.260;2022-07-29T02:30:15;20.83;;;15.00;;
6432;SDS011;3249;42.690;23.260;2022-07-29T02:32:42;15.37;;;13.83;;
6432;SDS011;3249;42.690;23.260;2022-07-29T02:35:10;18.40;;;14.67;;
6432;SDS011;3249;42.690;23.260;2022-07-29T02:37:39;20.37;;;13.63;;
6432;SDS011;3249;42.690;23.260;2022-07-29T02:40:07;16.13;;;13.27;;
6432;SDS011;3249;42.690;23.260;2022-07-29T02:42:35;19.93;;;14.00;;
6432;SDS011;3249;42.690;23.260;2022-07-29T02:45:02;16.23;;;12.57;;
6432;SDS011;3249;42.690;23.260;2022-07-29T02:47:34;18.60;;;13.20;;
6432;SDS011;3249;42.690;23.260;2022-07-29T02:50:11;14.07;;;12.77;;
6432;SDS011;3249;42.690;23.260;2022-07-29T02:55:25;16.47;;;13.47;;
6432;SDS011;3249;42.690;23.260;2022-07-29T02:57:58;17.13;;;13.23;;
6432;SDS011;3249;42.690;23.260;2022-07-29T03:00:27;16.13;;;13.13;;
6432;SDS011;3249;42.690;23.260;2022-07-29T03:02:58;15.27;;;13.83;;
6432;SDS011;3249;42.690;23.260;2022-07-29T03:05:25;15.17;;;13.67;;
6432;SDS011;3249;42.690;23.260;2022-07-29T03:07:53;15.53;;;14.00;;
6432;SDS011;3249;42.690;23.260;2022-07-29T03:10:22;15.57;;;13.93;;
6432;SDS011;3249;42.690;23.260;2022-07-29T03:12:49;15.57;;;13.77;;
6432;SDS011;3249;42.690;23.260;2022-07-29T03:15:15;16.87;;;15.10;;
6432;SDS011;3249;42.690;23.260;2022-07-29T03:17:41;16.70;;;14.47;;
6432;SDS011;3249;42.690;23.260;2022-07-29T03:20:08;14.90;;;12.90;;
6432;SDS011;3249;42.690;23.260;2022-07-29T03:22:44;15.73;;;13.20;;
6432;SDS011;3249;42.690;23.260;2022-07-29T03:25:15;15.47;;;13.97;;
6432;SDS011;3249;42.690;23.260;2022-07-29T03:27:42;15.13;;;13.57;;
6432;SDS011;3249;42.690;23.260;2022-07-29T03:30:08;15.17;;;13.67;;
6432;SDS011;3249;42.690;23.260;2022-07-29T03:32:35;16.67;;;14.87;;
6432;SDS011;3249;42.690;23.260;2022-07-29T03:35:01;15.83;;;14.27;;
6432;SDS011;3249;42.690;23.260;2022-07-29T03:37:27;18.00;;;15.97;;
6432;SDS011;3249;42.690;23.260;2022-07-29T03:39:52;18.53;;;15.00;;
6432;SDS011;3249;42.690;23.260;2022-07-29T03:42:22;16.33;;;14.53;;
6432;SDS011;3249;42.690;23.260;2022-07-29T03:44:50;20.63;;;15.33;;
6432;SDS011;3249;42.690;23.260;2022-07-29T03:47:18;16.47;;;14.87;;
6432;SDS011;3249;42.690;23.260;2022-07-29T03:49:47;17.43;;;15.73;;
6432;SDS011;3249;42.690;23.260;2022-07-29T03:52:17;19.70;;;15.93;;
6432;SDS011;3249;42.690;23.260;2022-07-29T03:54:43;21.23;;;15.80;;
6432;SDS011;3249;42.690;23.260;2022-07-29T03:57:10;19.07;;;14.70;;
6432;SDS011;3249;42.690;23.260;2022-07-29T03:59:36;16.97;;;14.17;;
6432;SDS011;3249;42.690;23.260;2022-07-29T04:02:03;18.70;;;14.27;;
6432;SDS011;3249;42.690;23.260;2022-07-29T04:04:33;20.40;;;15.20;;
6432;SDS011;3249;42.690;23.260;2022-07-29T04:07:00;15.67;;;14.13;;
6432;SDS011;3249;42.690;23.260;2022-07-29T04:09:26;15.27;;;13.60;;
6432;SDS011;3249;42.690;23.260;2022-07-29T04:11:51;14.43;;;13.17;;
6432;SDS011;3249;42.690;23.260;2022-07-29T04:14:17;14.57;;;13.03;;
6432;SDS011;3249;42.690;23.260;2022-07-29T04:16:43;14.90;;;13.10;;
6432;SDS011;3249;42.690;23.260;2022-07-29T04:19:09;16.50;;;13.63;;
6432;SDS011;3249;42.690;23.260;2022-07-29T04:21:40;14.90;;;13.40;;
6432;SDS011;3249;42.690;23.260;2022-07-29T04:24:06;13.90;;;12.37;;
6432;SDS011;3249;42.690;23.260;2022-07-29T04:26:32;17.60;;;14.13;;
6432;SDS011;3249;42.690;23.260;2022-07-29T04:28:59;20.03;;;14.77;;
6432;SDS011;3249;42.690;23.260;2022-07-29T04:31:25;19.70;;;15.43;;
6432;SDS011;3249;42.690;23.260;2022-07-29T04:33:50;14.33;;;13.13;;
6432;SDS011;3249;42.690;23.260;2022-07-29T04:36:16;16.17;;;14.60;;
6432;SDS011;3249;42.690;23.260;2022-07-29T04:38:41;15.53;;;13.33;;
6432;SDS011;3249;42.690;23.260;2022-07-29T04:41:06;16.07;;;14.43;;
6432;SDS011;3249;42.690;23.260;2022-07-29T04:43:33;16.87;;;14.10;;
6432;SDS011;3249;42.690;23.260;2022-07-29T04:45:59;16.83;;;14.90;;
6432;SDS011;3249;42.690;23.260;2022-07-29T04:48:25;16.10;;;14.40;;
6432;SDS011;3249;42.690;23.260;2022-07-29T04:50:50;17.17;;;15.37;;
6432;SDS011;3249;42.690;23.260;2022-07-29T04:53:16;20.83;;;15.63;;
6432;SDS011;3249;42.690;23.260;2022-07-29T04:55:42;17.67;;;16.07;;
6432;SDS011;3249;42.690;23.260;2022-07-29T04:58:07;20.40;;;15.20;;
6432;SDS011;3249;42.690;23.260;2022-07-29T05:00:33;18.63;;;16.60;;
6432;SDS011;3249;42.690;23.260;2022-07-29T05:02:59;18.87;;;17.00;;
6432;SDS011;3249;42.690;23.260;2022-07-29T05:05:24;18.50;;;16.50;;
6432;SDS011;3249;42.690;23.260;2022-07-29T05:07:49;18.30;;;16.40;;
6432;SDS011;3249;42.690;23.260;2022-07-29T05:10:15;17.27;;;15.63;;
6432;SDS011;3249;42.690;23.260;2022-07-29T05:12:40;19.50;;;16.93;;
6432;SDS011;3249;42.690;23.260;2022-07-29T05:15:06;19.93;;;17.00;;
6432;SDS011;3249;42.690;23.260;2022-07-29T05:17:32;18.57;;;16.67;;
6432;SDS011;3249;42.690;23.260;2022-07-29T05:19:57;17.80;;;15.47;;
6432;SDS011;3249;42.690;23.260;2022-07-29T05:22:22;17.77;;;15.87;;
6432;SDS011;3249;42.690;23.260;2022-07-29T05:24:48;18.00;;;16.17;;
6432;SDS011;3249;42.690;23.260;2022-07-29T05:27:13;17.13;;;15.43;;
6432;SDS011;3249;42.690;23.260;2022-07-29T05:29:39;20.83;;;17.00;;
6432;SDS011;3249;42.690;23.260;2022-07-29T05:32:04;19.97;;;16.47;;
6432;SDS011;3249;42.690;23.260;2022-07-29T05:34:30;18.33;;;16.53;;
6432;SDS011;3249;42.690;23.260;2022-07-29T05:36:56;18.80;;;16.87;;
6432;SDS011;3249;42.690;23.260;2022-07-29T05:39:22;23.50;;;19.10;;
6432;SDS011;3249;42.690;23.260;2022-07-29T05:41:47;18.93;;;17.10;;
6432;SDS011;3249;42.690;23.260;2022-07-29T05:44:13;18.07;;;16.23;;
6432;SDS011;3249;42.690;23.260;2022-07-29T05:46:39;18.10;;;16.13;;
6432;SDS011;3249;42.690;23.260;2022-07-29T05:49:04;18.30;;;16.50;;
6432;SDS011;3249;42.690;23.260;2022-07-29T05:51:31;21.40;;;16.60;;
6432;SDS011;3249;42.690;23.260;2022-07-29T05:53:57;18.90;;;16.10;;
6432;SDS011;3249;42.690;23.260;2022-07-29T05:56:23;19.10;;;17.10;;
6432;SDS011;3249;42.690;23.260;2022-07-29T05:58:48;19.33;;;17.43;;
6432;SDS011;3249;42.690;23.260;2022-07-29T06:01:14;21.27;;;19.00;;
6432;SDS011;3249;42.690;23.260;2022-07-29T06:03:39;22.73;;;20.60;;
6432;SDS011;3249;42.690;23.260;2022-07-29T06:06:06;22.67;;;20.30;;
6432;SDS011;3249;42.690;23.260;2022-07-29T06:08:32;21.83;;;19.77;;
6432;SDS011;3249;42.690;23.260;2022-07-29T06:10:58;19.67;;;17.57;;
6432;SDS011;3249;42.690;23.260;2022-07-29T06:13:24;18.73;;;16.93;;
6432;SDS011;3249;42.690;23.260;2022-07-29T06:15:50;18.67;;;16.70;;
6432;SDS011;3249;42.690;23.260;2022-07-29T06:18:15;18.30;;;16.13;;
6432;SDS011;3249;42.690;23.260;2022-07-29T06:20:41;19.40;;;16.97;;
6432;SDS011;3249;42.690;23.260;2022-07-29T06:23:06;18.13;;;16.00;;
6432;SDS011;3249;42.690;23.260;2022-07-29T06:25:32;18.27;;;16.40;;
6432;SDS011;3249;42.690;23.260;2022-07-29T06:27:59;16.40;;;14.80;;
6432;SDS011;3249;42.690;23.260;2022-07-29T06:30:25;17.60;;;13.67;;
6432;SDS011;3249;42.690;23.260;2022-07-29T06:32:50;17.50;;;15.80;;
6432;SDS011;3249;42.690;23.260;2022-07-29T06:35:15;19.33;;;14.73;;
6432;SDS011;3249;42.690;23.260;2022-07-29T06:37:41;15.77;;;14.17;;
6432;SDS011;3249;42.690;23.260;2022-07-29T06:40:06;15.73;;;12.27;;
6432;SDS011;3249;42.690;23.260;2022-07-29T06:42:51;9.00;;;8.27;;
6432;SDS011;3249;42.690;23.260;2022-07-29T06:45:16;8.67;;;7.80;;
6432;SDS011;3249;42.690;23.260;2022-07-29T06:47:42;8.80;;;8.00;;
6432;SDS011;3249;42.690;23.260;2022-07-29T06:50:07;8.87;;;8.17;;
6432;SDS011;3249;42.690;23.260;2022-07-29T06:52:36;8.63;;;6.80;;
6432;SDS011;3249;42.690;23.260;2022-07-29T06:55:02;8.47;;;6.77;;
6432;SDS011;3249;42.690;23.260;2022-07-29T06:57:27;11.53;;;7.00;;
6432;SDS011;3249;42.690;23.260;2022-07-29T06:59:53;10.07;;;6.50;;
6432;SDS011;3249;42.690;23.260;2022-07-29T07:02:18;7.97;;;6.77;;
6432;SDS011;3249;42.690;23.260;2022-07-29T07:04:43;8.53;;;7.80;;
6432;SDS011;3249;42.690;23.260;2022-07-29T07:07:09;11.90;;;7.80;;
6432;SDS011;3249;42.690;23.260;2022-07-29T07:09:34;8.57;;;7.03;;
6432;SDS011;3249;42.690;23.260;2022-07-29T07:12:00;12.80;;;6.93;;
6432;SDS011;3249;42.690;23.260;2022-07-29T07:14:25;9.87;;;7.33;;
6432;SDS011;3249;42.690;23.260;2022-07-29T07:16:52;8.53;;;5.87;;
6432;SDS011;3249;42.690;23.260;2022-07-29T07:19:17;8.10;;;7.37;;
6432;SDS011;3249;42.690;23.260;2022-07-29T07:21:44;7.53;;;6.93;;
6432;SDS011;3249;42.690;23.260;2022-07-29T07:24:09;6.33;;;5.70;;
6432;SDS011;3249;42.690;23.260;2022-07-29T07:26:35;7.23;;;6.73;;
6432;SDS011;3249;42.690;23.260;2022-07-29T07:29:00;8.60;;;7.53;;
6432;SDS011;3249;42.690;23.260;2022-07-29T07:31:25;7.23;;;6.63;;
6432;SDS011;3249;42.690;23.260;2022-07-29T07:33:51;8.73;;;7.77;;
6432;SDS011;3249;42.690;23.260;2022-07-29T07:36:18;7.57;;;6.97;;
6432;SDS011;3249;42.690;23.260;2022-07-29T07:38:43;7.30;;;6.80;;
6432;SDS011;3249;42.690;23.260;2022-07-29T07:41:09;7.73;;;6.83;;
6432;SDS011;3249;42.690;23.260;2022-07-29T07:43:34;7.20;;;6.63;;
6432;SDS011;3249;42.690;23.260;2022-07-29T07:46:00;10.80;;;7.17;;
6432;SDS011;3249;42.690;23.260;2022-07-29T07:48:25;7.20;;;6.50;;
6432;SDS011;3249;42.690;23.260;2022-07-29T07:50:51;8.27;;;7.47;;
6432;SDS011;3249;42.690;23.260;2022-07-29T07:53:16;7.40;;;6.60;;
6432;SDS011;3249;42.690;23.260;2022-07-29T07:55:42;7.50;;;6.43;;
6432;SDS011;3249;42.690;23.260;2022-07-29T07:58:08;6.87;;;6.37;;
6432;SDS011;3249;42.690;23.260;2022-07-29T08:00:34;9.33;;;6.83;;
6432;SDS011;3249;42.690;23.260;2022-07-29T08:03:00;10.67;;;6.80;;
6432;SDS011;3249;42.690;23.260;2022-07-29T08:05:25;6.83;;;6.30;;
6432;SDS011;3249;42.690;23.260;2022-07-29T08:07:51;5.97;;;5.57;;
6432;SDS011;3249;42.690;23.260;2022-07-29T08:10:16;7.33;;;6.57;;
6432;SDS011;3249;42.690;23.260;2022-07-29T08:13:04;5.87;;;5.43;;
6432;SDS011;3249;42.690;23.260;2022-07-29T08:15:32;6.60;;;5.70;;
6432;SDS011;3249;42.690;23.260;2022-07-29T08:17:57;6.63;;;6.03;;
6432;SDS011;3249;42.690;23.260;2022-07-29T08:20:23;6.07;;;5.57;;
6432;SDS011;3249;42.690;23.260;2022-07-29T08:22:49;6.40;;;5.73;;
6432;SDS011;3249;42.690;23.260;2022-07-29T08:25:14;6.53;;;5.57;;
6432;SDS011;3249;42.690;23.260;2022-07-29T08:27:40;5.57;;;5.07;;
6432;SDS011;3249;42.690;23.260;2022-07-29T08:30:06;6.57;;;5.57;;
6432;SDS011;3249;42.690;23.260;2022-07-29T08:32:32;6.97;;;5.50;;
6432;SDS011;3249;42.690;23.260;2022-07-29T08:34:57;6.10;;;5.67;;
6432;SDS011;3249;42.690;23.260;2022-07-29T08:37:22;5.83;;;5.43;;
6432;SDS011;3249;42.690;23.260;2022-07-29T08:39:48;6.47;;;5.63;;
6432;SDS011;3249;42.690;23.260;2022-07-29T08:42:13;5.87;;;5.30;;
6432;SDS011;3249;42.690;23.260;2022-07-29T08:44:41;6.10;;;5.50;;
6432;SDS011;3249;42.690;23.260;2022-07-29T08:47:07;6.00;;;5.50;;
6432;SDS011;3249;42.690;23.260;2022-07-29T08:49:33;5.97;;;5.00;;
6432;SDS011;3249;42.690;23.260;2022-07-29T08:52:00;5.50;;;5.10;;
6432;SDS011;3249;42.690;23.260;2022-07-29T08:54:26;9.30;;;5.23;;
6432;SDS011;3249;42.690;23.260;2022-07-29T08:56:53;6.57;;;5.43;;
6432;SDS011;3249;42.690;23.260;2022-07-29T08:59:20;6.10;;;4.80;;
6432;SDS011;3249;42.690;23.260;2022-07-29T09:01:47;5.33;;;5.00;;
6432;SDS011;3249;42.690;23.260;2022-07-29T09:04:15;6.93;;;5.87;;
6432;SDS011;3249;42.690;23.260;2022-07-29T09:06:43;5.20;;;4.70;;
6432;SDS011;3249;42.690;23.260;2022-07-29T09:09:11;5.27;;;4.87;;
6432;SDS011;3249;42.690;23.260;2022-07-29T09:11:39;5.40;;;5.00;;
6432;SDS011;3249;42.690;23.260;2022-07-29T09:14:05;6.17;;;5.10;;
6432;SDS011;3249;42.690;23.260;2022-07-29T09:19:30;5.17;;;4.80;;
6432;SDS011;3249;42.690;23.260;2022-07-29T09:21:59;6.73;;;6.13;;
6432;SDS011;3249;42.690;23.260;2022-07-29T09:24:36;5.80;;;5.20;;
6432;SDS011;3249;42.690;23.260;2022-07-29T09:32:31;6.77;;;5.03;;
6432;SDS011;3249;42.690;23.260;2022-07-29T09:35:16;5.70;;;5.10;;
6432;SDS011;3249;42.690;23.260;2022-07-29T09:37:46;5.77;;;5.27;;
6432;SDS011;3249;42.690;23.260;2022-07-29T09:40:25;9.07;;;5.27;;
6432;SDS011;3249;42.690;23.260;2022-07-29T09:42:52;6.20;;;5.63;;
6432;SDS011;3249;42.690;23.260;2022-07-29T09:47:57;4.57;;;4.17;;
6432;SDS011;3249;42.690;23.260;2022-07-29T09:53:29;4.77;;;4.37;;
6432;SDS011;3249;42.690;23.260;2022-07-29T09:55:57;5.00;;;4.70;;
6432;SDS011;3249;42.690;23.260;2022-07-29T09:58:22;5.30;;;4.90;;
6432;SDS011;3249;42.690;23.260;2022-07-29T10:00:49;5.00;;;4.57;;
6432;SDS011;3249;42.690;23.260;2022-07-29T10:03:16;4.87;;;4.47;;
6432;SDS011;3249;42.690;23.260;2022-07-29T10:05:42;5.50;;;5.03;;
6432;SDS011;3249;42.690;23.260;2022-07-29T10:08:09;5.20;;;4.90;;
6432;SDS011;3249;42.690;23.260;2022-07-29T10:10:36;5.10;;;4.70;;
6432;SDS011;3249;42.690;23.260;2022-07-29T10:13:04;7.07;;;5.70;;
6432;SDS011;3249;42.690;23.260;2022-07-29T10:15:32;6.73;;;5.47;;
6432;SDS011;3249;42.690;23.260;2022-07-29T10:18:02;9.67;;;6.17;;
6432;SDS011;3249;42.690;23.260;2022-07-29T10:20:27;5.10;;;4.70;;
6432;SDS011;3249;42.690;23.260;2022-07-29T10:22:53;5.13;;;4.83;;
6432;SDS011;3249;42.690;23.260;2022-07-29T10:25:21;6.00;;;5.47;;
6432;SDS011;3249;42.690;23.260;2022-07-29T10:27:48;7.93;;;6.10;;
6432;SDS011;3249;42.690;23.260;2022-07-29T10:30:16;6.03;;;5.60;;
6432;SDS011;3249;42.690;23.260;2022-07-29T10:32:49;6.13;;;5.63;;
6432;SDS011;3249;42.690;23.260;2022-07-29T10:43:43;6.47;;;5.83;;
6432;SDS011;3249;42.690;23.260;2022-07-29T10:46:11;6.20;;;5.70;;
6432;SDS011;3249;42.690;23.260;2022-07-29T10:54:17;9.00;;;5.57;;
6432;SDS011;3249;42.690;23.260;2022-07-29T10:56:43;6.23;;;5.70;;
6432;SDS011;3249;42.690;23.260;2022-07-29T11:01:47;6.03;;;5.43;;
6432;SDS011;3249;42.690;23.260;2022-07-29T11:04:14;8.67;;;5.70;;
6432;SDS011;3249;42.690;23.260;2022-07-29T11:09:32;5.60;;;5.20;;
6432;SDS011;3249;42.690;23.260;2022-07-29T11:11:58;6.53;;;5.93;;
6432;SDS011;3249;42.690;23.260;2022-07-29T11:17:17;5.63;;;5.27;;
6432;SDS011;3249;42.690;23.260;2022-07-29T11:19:43;5.67;;;5.23;;
6432;SDS011;3249;42.690;23.260;2022-07-29T11:22:09;10.13;;;5.70;;
6432;SDS011;3249;42.690;23.260;2022-07-29T11:24:36;8.33;;;5.00;;
6432;SDS011;3249;42.690;23.260;2022-07-29T11:27:24;6.10;;;5.53;;
6432;SDS011;3249;42.690;23.260;2022-07-29T11:29:56;7.57;;;6.90;;
6432;SDS011;3249;42.690;23.260;2022-07-29T11:32:23;7.47;;;6.87;;
6432;SDS011;3249;42.690;23.260;2022-07-29T11:34:50;6.43;;;5.93;;
6432;SDS011;3249;42.690;23.260;2022-07-29T11:37:37;7.73;;;6.43;;
6432;SDS011;3249;42.690;23.260;2022-07-29T11:44:58;7.67;;;6.20;;
6432;SDS011;3249;42.690;23.260;2022-07-29T11:47:25;6.47;;;5.90;;
6432;SDS011;3249;42.690;23.260;2022-07-29T11:49:52;5.80;;;5.50;;
6432;SDS011;3249;42.690;23.260;2022-07-29T11:52:19;7.17;;;6.67;;
6432;SDS011;3249;42.690;23.260;2022-07-29T11:54:47;7.10;;;6.50;;
6432;SDS011;3249;42.690;23.260;2022-07-29T11:57:14;6.37;;;5.70;;
6432;SDS011;3249;42.690;23.260;2022-07-29T11:59:42;6.80;;;6.23;;
6432;SDS011;3249;42.690;23.260;2022-07-29T12:02:09;6.60;;;6.03;;
6432;SDS011;3249;42.690;23.260;2022-07-29T12:04:54;6.87;;;6.13;;
6432;SDS011;3249;42.690;23.260;2022-07-29T12:09:54;5.87;;;5.33;;
6432;SDS011;3249;42.690;23.260;2022-07-29T12:12:20;6.40;;;5.87;;
6432;SDS011;3249;42.690;23.260;2022-07-29T12:14:46;5.97;;;5.47;;
6432;SDS011;3249;42.690;23.260;2022-07-29T12:20:13;7.13;;;6.50;;
6432;SDS011;3249;42.690;23.260;2022-07-29T12:22:46;6.53;;;6.00;;
6432;SDS011;3249;42.690;23.260;2022-07-29T12:25:13;6.60;;;6.10;;
6432;SDS011;3249;42.690;23.260;2022-07-29T12:27:41;6.23;;;5.80;;
6432;SDS011;3249;42.690;23.260;2022-07-29T12:30:17;6.27;;;5.80;;
6432;SDS011;3249;42.690;23.260;2022-07-29T12:32:44;7.63;;;6.07;;
6432;SDS011;3249;42.690;23.260;2022-07-29T12:35:12;9.13;;;8.23;;
6432;SDS011;3249;42.690;23.260;2022-07-29T12:37:40;6.60;;;6.00;;
6432;SDS011;3249;42.690;23.260;2022-07-29T12:40:07;6.70;;;6.10;;
6432;SDS011;3249;42.690;23.260;2022-07-29T12:42:34;6.90;;;6.30;;
6432;SDS011;3249;42.690;23.260;2022-07-29T12:45:00;6.17;;;5.67;;
6432;SDS011;3249;42.690;23.260;2022-07-29T12:47:26;6.40;;;5.90;;
6432;SDS011;3249;42.690;23.260;2022-07-29T12:50:12;6.93;;;6.43;;
6432;SDS011;3249;42.690;23.260;2022-07-29T12:52:42;7.07;;;6.57;;
6432;SDS011;3249;42.690;23.260;2022-07-29T12:55:09;7.70;;;7.10;;
6432;SDS011;3249;42.690;23.260;2022-07-29T12:57:44;7.07;;;6.33;;
6432;SDS011;3249;42.690;23.260;2022-07-29T13:00:15;6.83;;;6.13;;
6432;SDS011;3249;42.690;23.260;2022-07-29T13:02:46;7.80;;;7.00;;
6432;SDS011;3249;42.690;23.260;2022-07-29T13:05:20;6.67;;;6.17;;
6432;SDS011;3249;42.690;23.260;2022-07-29T13:07:45;7.23;;;6.63;;
6432;SDS011;3249;42.690;23.260;2022-07-29T13:10:12;7.53;;;6.93;;
6432;SDS011;3249;42.690;23.260;2022-07-29T13:13:01;6.97;;;6.40;;
6432;SDS011;3249;42.690;23.260;2022-07-29T13:15:28;7.97;;;6.70;;
6432;SDS011;3249;42.690;23.260;2022-07-29T13:17:54;7.37;;;6.70;;
6432;SDS011;3249;42.690;23.260;2022-07-29T13:20:23;7.53;;;6.93;;
6432;SDS011;3249;42.690;23.260;2022-07-29T13:22:49;6.90;;;6.40;;
6432;SDS011;3249;42.690;23.260;2022-07-29T13:25:15;7.77;;;7.20;;
6432;SDS011;3249;42.690;23.260;2022-07-29T13:27:49;6.83;;;6.33;;
6432;SDS011;3249;42.690;23.260;2022-07-29T13:30:15;7.47;;;6.77;;
6432;SDS011;3249;42.690;23.260;2022-07-29T13:32:40;8.20;;;6.83;;
6432;SDS011;3249;42.690;23.260;2022-07-29T13:35:07;7.23;;;6.73;;
6432;SDS011;3249;42.690;23.260;2022-07-29T13:37:33;7.23;;;6.73;;
6432;SDS011;3249;42.690;23.260;2022-07-29T13:40:00;7.27;;;6.63;;
6432;SDS011;3249;42.690;23.260;2022-07-29T13:42:27;7.50;;;6.90;;
6432;SDS011;3249;42.690;23.260;2022-07-29T13:44:53;7.03;;;6.43;;
6432;SDS011;3249;42.690;23.260;2022-07-29T13:47:18;10.23;;;7.47;;
6432;SDS011;3249;42.690;23.260;2022-07-29T13:49:45;6.83;;;6.30;;
6432;SDS011;3249;42.690;23.260;2022-07-29T13:52:10;7.57;;;6.90;;
6432;SDS011;3249;42.690;23.260;2022-07-29T13:54:36;9.43;;;7.03;;
6432;SDS011;3249;42.690;23.260;2022-07-29T13:57:03;6.97;;;6.33;;
6432;SDS011;3249;42.690;23.260;2022-07-29T13:59:29;7.57;;;6.97;;
6432;SDS011;3249;42.690;23.260;2022-07-29T14:01:55;8.87;;;7.13;;
6432;SDS011;3249;42.690;23.260;2022-07-29T14:04:20;7.00;;;6.50;;
6432;SDS011;3249;42.690;23.260;2022-07-29T14:06:48;7.50;;;6.93;;
6432;SDS011;3249;42.690;23.260;2022-07-29T14:09:17;7.60;;;7.07;;
6432;SDS011;3249;42.690;23.260;2022-07-29T14:11:42;6.57;;;6.17;;
6432;SDS011;3249;42.690;23.260;2022-07-29T14:14:08;6.77;;;6.10;;
6432;SDS011;3249;42.690;23.260;2022-07-29T14:16:35;6.40;;;6.00;;
6432;SDS011;3249;42.690;23.260;2022-07-29T14:19:01;6.70;;;6.20;;
6432;SDS011;3249;42.690;23.260;2022-07-29T14:21:26;6.87;;;6.30;;
6432;SDS011;3249;42.690;23.260;2022-07-29T14:23:52;7.07;;;6.40;;
6432;SDS011;3249;42.690;23.260;2022-07-29T14:26:19;7.97;;;6.63;;
6432;SDS011;3249;42.690;23.260;2022-07-29T14:28:46;6.60;;;6.00;;
6432;SDS011;3249;42.690;23.260;2022-07-29T14:31:11;7.00;;;6.53;;
6432;SDS011;3249;42.690;23.260;2022-07-29T14:33:37;8.67;;;7.90;;
6432;SDS011;3249;42.690;23.260;2022-07-29T14:36:03;7.70;;;6.97;;
6432;SDS011;3249;42.690;23.260;2022-07-29T14:38:34;6.87;;;6.20;;
6432;SDS011;3249;42.690;23.260;2022-07-29T14:41:02;7.03;;;6.50;;
6432;SDS011;3249;42.690;23.260;2022-07-29T14:43:30;6.47;;;5.97;;
6432;SDS011;3249;42.690;23.260;2022-07-29T14:46:00;7.10;;;6.50;;
6432;SDS011;3249;42.690;23.260;2022-07-29T14:48:29;7.37;;;6.73;;
6432;SDS011;3249;42.690;23.260;2022-07-29T14:50:55;7.40;;;6.73;;
6432;SDS011;3249;42.690;23.260;2022-07-29T14:53:21;7.37;;;6.70;;
6432;SDS011;3249;42.690;23.260;2022-07-29T14:55:47;6.30;;;5.90;;
6432;SDS011;3249;42.690;23.260;2022-07-29T14:58:12;6.67;;;6.10;;
6432;SDS011;3249;42.690;23.260;2022-07-29T15:00:38;6.33;;;5.93;;
6432;SDS011;3249;42.690;23.260;2022-07-29T15:03:04;7.30;;;6.70;;
6432;SDS011;3249;42.690;23.260;2022-07-29T15:05:30;6.93;;;6.33;;
6432;SDS011;3249;42.690;23.260;2022-07-29T15:07:56;9.97;;;7.90;;
6432;SDS011;3249;42.690;23.260;2022-07-29T15:10:22;7.37;;;6.50;;
6432;SDS011;3249;42.690;23.260;2022-07-29T15:12:47;7.03;;;6.37;;
6432;SDS011;3249;42.690;23.260;2022-07-29T15:15:13;7.43;;;6.77;;
6432;SDS011;3249;42.690;23.260;2022-07-29T15:17:38;7.30;;;6.80;;
6432;SDS011;3249;42.690;23.260;2022-07-29T15:20:04;7.17;;;6.60;;
6432;SDS011;3249;42.690;23.260;2022-07-29T15:22:30;7.53;;;6.90;;
6432;SDS011;3249;42.690;23.260;2022-07-29T15:24:55;7.17;;;6.57;;
6432;SDS011;3249;42.690;23.260;2022-07-29T15:27:21;6.73;;;6.33;;
6432;SDS011;3249;42.690;23.260;2022-07-29T15:29:46;8.03;;;7.27;;
6432;SDS011;3249;42.690;23.260;2022-07-29T15:32:12;7.57;;;6.93;;
6432;SDS011;3249;42.690;23.260;2022-07-29T15:34:37;7.97;;;7.37;;
6432;SDS011;3249;42.690;23.260;2022-07-29T15:37:03;8.10;;;7.33;;
6432;SDS011;3249;42.690;23.260;2022-07-29T15:39:29;7.83;;;7.23;;
6432;SDS011;3249;42.690;23.260;2022-07-29T15:41:55;7.73;;;7.10;;
6432;SDS011;3249;42.690;23.260;2022-07-29T15:44:21;8.33;;;7.73;;
6432;SDS011;3249;42.690;23.260;2022-07-29T15:46:47;7.57;;;6.93;;
6432;SDS011;3249;42.690;23.260;2022-07-29T15:49:28;7.13;;;6.70;;
6432;SDS011;3249;42.690;23.260;2022-07-29T15:51:58;8.23;;;7.43;;
6432;SDS011;3249;42.690;23.260;2022-07-29T15:54:24;7.60;;;6.90;;